Time;durP1;ratioP1;P1;durP2;ratioP2;P2;SDS_P1;SDS_P2;PMS_P1;PMS_P2;Temp;Humidity;BMP_temperature;BMP_pressure;BME280_temperature;BME280_humidity;BME280_pressure;Samples;Min_cycle;Max_cycle;Signal;HPM_P1;HPM_P2
2022/06/12 00:00:35;;;;;;;7.03;6.30;;;16.40;99.90;;;17.22;80.89;98505.00;5283759;27;20250;-57
2022/06/12 00:03:14;;;;;;;7.18;6.57;;;16.40;99.90;;;17.22;81.42;98504.13;5277801;27;20223;-56
2022/06/12 00:05:51;;;;;;;6.65;6.05;;;16.40;99.90;;;17.19;80.99;98515.19;5286268;28;20195;-56
2022/06/12 00:08:27;;;;;;;7.03;6.43;;;16.40;99.90;;;17.15;80.47;98512.44;5278611;27;20619;-57
2022/06/12 00:11:04;;;;;;;7.00;6.50;;;16.30;99.90;;;17.11;79.85;98509.75;5281131;28;20222;-57
2022/06/12 00:13:42;;;;;;;7.13;6.60;;;16.30;99.90;;;17.03;80.97;98505.94;5283930;28;20222;-56
2022/06/12 00:16:17;;;;;;;6.53;6.03;;;16.20;99.90;;;17.07;80.92;98505.25;5279705;27;20270;-58
2022/06/12 00:18:51;;;;;;;6.18;5.78;;;16.20;99.90;;;17.00;81.15;98502.38;5274355;27;20716;-56
2022/06/12 00:21:26;;;;;;;7.05;6.05;;;16.20;99.90;;;17.05;81.06;98501.75;5281139;28;20319;-57
2022/06/12 00:24:04;;;;;;;6.43;5.80;;;16.20;99.90;;;17.01;81.21;98498.94;5279808;27;20198;-55
2022/06/12 00:26:41;;;;;;;6.45;5.82;;;16.10;99.90;;;16.99;81.21;98501.44;5282406;27;20616;-57
2022/06/12 00:29:20;;;;;;;6.88;6.38;;;16.10;99.90;;;16.94;80.71;98500.41;5282351;27;20253;-56
2022/06/12 00:31:56;;;;;;;6.88;6.28;;;16.10;99.90;;;16.89;80.72;98495.03;5285213;28;20199;-56
2022/06/12 00:34:34;;;;;;;6.55;5.95;;;16.00;99.90;;;16.79;81.41;98499.72;5282910;27;20238;-58
2022/06/12 00:37:07;;;;;;;6.80;6.20;;;15.90;99.90;;;16.67;81.27;98495.75;5281757;28;20652;-56
2022/06/12 00:39:42;;;;;;;7.00;6.40;;;15.80;99.90;;;16.63;80.98;98491.31;5282286;28;20692;-56
2022/06/12 00:42:24;;;;;;;6.82;6.32;;;15.70;99.90;;;16.59;81.63;98499.72;5279660;28;20245;-56
2022/06/12 00:45:03;;;;;;;6.57;6.07;;;15.70;99.90;;;16.59;82.07;98493.66;5278464;28;20268;-56
2022/06/12 00:47:39;;;;;;;6.80;6.30;;;15.70;99.90;;;16.60;82.31;98496.34;5278183;27;20252;-57
2022/06/12 00:50:15;;;;;;;6.30;5.80;;;15.70;99.90;;;16.48;81.54;98490.63;5282041;28;20238;-54
2022/06/12 00:52:52;;;;;;;7.13;6.50;;;15.60;99.90;;;16.42;81.60;98482.59;5281512;28;20218;-56
2022/06/12 00:55:35;;;;;;;7.10;6.53;;;15.60;99.90;;;16.51;83.14;98495.03;5282112;27;20718;-54
2022/06/12 00:58:12;;;;;;;6.80;6.22;;;15.60;99.90;;;16.52;83.44;98482.22;5278783;28;20196;-54
2022/06/12 01:00:47;;;;;;;7.03;6.53;;;15.70;99.90;;;16.51;83.72;98495.94;5278666;27;20241;-55
2022/06/12 01:03:22;;;;;;;7.32;6.63;;;15.70;99.90;;;16.54;83.72;98495.16;5279795;27;20211;-57
2022/06/12 01:09:06;;;;;;;6.80;6.10;;;15.70;99.90;;;16.49;83.68;98487.25;5231930;28;20355;-56
2022/06/12 01:11:45;;;;;;;7.30;6.63;;;15.70;99.90;;;16.53;83.19;98498.56;5241811;28;20273;-56
2022/06/12 01:14:24;;;;;;;6.80;6.20;;;15.60;99.90;;;16.56;83.44;98490.97;5265169;28;20652;-56
2022/06/12 01:16:58;;;;;;;7.55;6.85;;;15.70;99.90;;;16.49;83.60;98494.97;5279621;27;20573;-57
2022/06/12 01:19:36;;;;;;;7.13;6.22;;;15.60;99.90;;;16.42;84.32;98491.25;5279158;27;20218;-56
2022/06/12 01:22:40;;;;;;;7.40;6.82;;;15.60;99.90;;;16.41;84.13;98489.47;5279307;27;20223;-54
2022/06/12 01:25:33;;;;;;;6.93;6.43;;;15.60;99.90;;;16.31;84.20;98486.41;5278841;28;20696;-57
2022/06/12 01:28:39;;;;;;;6.40;5.93;;;15.50;99.90;;;16.36;84.39;98484.91;5278628;28;20241;-55
2022/06/12 01:31:39;;;;;;;6.63;6.13;;;15.50;99.90;;;16.21;83.31;98474.81;5277887;28;20199;-54
2022/06/12 01:34:30;;;;;;;7.10;6.50;;;15.40;99.90;;;16.14;82.55;98477.94;5280989;28;20226;-55
2022/06/12 01:37:19;;;;;;;6.93;6.45;;;15.20;99.90;;;16.05;82.91;98473.22;5276913;28;20316;-56
2022/06/12 01:40:06;;;;;;;7.45;6.85;;;15.10;99.90;;;15.94;83.59;98479.63;5279055;28;20267;-55
2022/06/12 01:42:49;;;;;;;7.78;7.10;;;15.10;99.90;;;15.96;84.76;98467.66;5279335;28;20202;-56
2022/06/12 01:45:38;;;;;;;7.30;6.70;;;15.10;99.90;;;15.99;84.30;98471.28;5282474;28;20248;-56
2022/06/12 01:48:25;;;;;;;7.45;6.78;;;15.10;99.90;;;15.96;84.28;98467.66;5278312;28;20564;-54
2022/06/12 01:51:10;;;;;;;8.10;7.40;;;15.10;99.90;;;15.99;85.76;98483.25;5278044;28;20310;-56
2022/06/12 01:53:57;;;;;;;7.25;6.10;;;15.30;99.90;;;15.99;85.37;98472.94;5277953;28;21122;-55
2022/06/12 01:56:38;;;;;;;7.18;6.68;;;15.20;99.90;;;16.02;86.47;98467.91;5275647;28;20256;-58
2022/06/12 01:59:18;;;;;;;7.30;6.60;;;15.30;99.90;;;16.02;85.79;98478.25;5275792;28;20219;-56
2022/06/12 02:01:57;;;;;;;6.85;6.35;;;15.30;99.90;;;16.00;85.10;98474.72;5278898;28;20305;-56
2022/06/12 02:04:38;;;;;;;7.07;6.47;;;15.20;99.90;;;15.92;85.09;98476.06;5278347;28;20233;-57
2022/06/12 02:07:18;;;;;;;7.28;6.68;;;15.10;99.90;;;15.83;85.38;98473.06;5279130;28;20191;-57
2022/06/12 02:09:59;;;;;;;7.22;6.72;;;15.00;99.90;;;15.74;86.53;98482.16;5277838;28;20222;-57
2022/06/12 02:15:36;;;;;;;6.95;6.43;;;14.80;99.90;;;15.61;86.62;98469.44;5276587;28;20206;-56
2022/06/12 02:18:22;;;;;;;6.57;6.00;;;14.80;99.90;;;15.63;85.78;98472.13;5276696;28;20234;-55
2022/06/12 02:21:04;;;;;;;7.05;6.40;;;14.80;99.90;;;15.66;85.09;98461.94;5276114;28;20603;-53
2022/06/12 02:23:43;;;;;;;6.38;5.97;;;14.80;99.90;;;15.63;85.73;98467.84;5280441;28;20191;-56
2022/06/12 02:26:21;;;;;;;7.05;6.47;;;14.80;99.90;;;15.63;85.91;98467.84;5275365;28;20231;-56
2022/06/12 02:29:01;;;;;;;7.40;6.70;;;14.80;99.90;;;15.61;86.89;98466.88;5275507;28;20699;-56
2022/06/12 02:31:40;;;;;;;7.88;7.20;;;14.80;99.90;;;15.66;85.96;98467.97;5283040;28;20606;-55
2022/06/12 02:34:22;;;;;;;7.55;6.85;;;14.80;99.90;;;15.66;85.91;98473.13;5280350;28;20245;-56
2022/06/12 02:37:07;;;;;;;7.00;6.50;;;14.90;99.90;;;15.65;86.73;98463.66;5276797;28;20240;-57
2022/06/12 02:39:44;;;;;;;7.70;7.00;;;14.90;99.90;;;15.69;86.59;98468.16;5276661;28;20775;-56
2022/06/12 02:42:21;;;;;;;7.22;6.63;;;14.90;99.90;;;15.64;86.19;98469.59;5277021;28;20219;-56
2022/06/12 02:45:00;;;;;;;7.32;6.75;;;14.90;99.90;;;15.55;85.47;98471.75;5280125;28;20234;-57
2022/06/12 02:47:37;;;;;;;7.43;6.88;;;14.70;99.90;;;15.48;86.08;98467.09;5283517;27;20618;-57
2022/06/12 02:50:16;;;;;;;6.68;6.25;;;14.70;99.90;;;15.50;86.18;98470.63;5283040;27;20243;-58
2022/06/12 02:53:00;;;;;;;6.95;6.45;;;14.70;99.90;;;15.51;86.00;98472.41;5284993;27;20551;-57
2022/06/12 02:55:44;;;;;;;7.28;6.68;;;14.70;99.90;;;15.50;86.00;98470.63;5279912;27;20199;-57
2022/06/12 02:58:26;;;;;;;6.93;6.40;;;14.70;99.90;;;15.50;86.70;98470.63;5286104;28;20245;-57
2022/06/12 03:01:05;;;;;;;7.68;7.13;;;14.70;99.90;;;15.49;86.27;98474.91;5280271;28;20284;-57
2022/06/12 03:03:44;;;;;;;7.53;6.95;;;14.70;99.90;;;15.41;86.72;98481.38;5282221;27;20188;-57
2022/06/12 03:06:19;;;;;;;7.93;7.32;;;14.60;99.90;;;15.42;86.69;98477.09;5280960;28;20219;-56
2022/06/12 03:08:55;;;;;;;7.80;7.20;;;14.70;99.90;;;15.42;87.90;98482.25;5280447;27;20241;-57
2022/06/12 03:11:33;;;;;;;8.23;7.57;;;14.70;99.90;;;15.40;88.06;98483.91;5279050;28;20199;-56
2022/06/12 03:14:10;;;;;;;8.13;7.32;;;14.70;99.90;;;15.42;87.02;98482.25;5278376;27;20199;-57
2022/06/12 03:16:46;;;;;;;7.82;7.13;;;14.60;99.90;;;15.43;86.62;98482.34;5279458;28;20548;-57
2022/06/12 03:19:24;;;;;;;6.85;6.35;;;14.70;99.90;;;15.40;86.80;98481.31;5280293;28;20222;-55
2022/06/12 03:22:11;;;;;;;7.43;6.80;;;14.60;99.90;;;15.36;86.09;98482.84;5281458;27;20252;-56
2022/06/12 03:24:59;;;;;;;7.35;6.80;;;14.50;99.90;;;15.36;87.53;98489.69;5281804;28;20191;-57
2022/06/12 03:27:48;;;;;;;7.45;6.85;;;14.50;99.90;;;15.31;86.51;98484.34;5276895;27;20203;-57
2022/06/12 03:30:31;;;;;;;7.15;6.65;;;14.50;99.90;;;15.19;86.25;98481.16;5276341;28;20317;-55
2022/06/12 03:33:12;;;;;;;7.53;6.93;;;14.30;99.90;;;15.18;87.11;98490.56;5280599;27;20199;-56
2022/06/12 03:35:54;;;;;;;7.40;6.90;;;14.40;99.90;;;15.14;86.51;98480.94;5278264;27;20300;-57
2022/06/12 03:38:37;;;;;;;7.68;7.10;;;14.30;99.90;;;15.22;86.87;98481.28;5276626;28;20610;-56
2022/06/12 03:41:21;;;;;;;7.50;6.90;;;14.40;99.90;;;15.25;88.45;98484.94;5273614;27;20295;-56
2022/06/12 03:44:00;;;;;;;7.38;6.88;;;14.50;99.90;;;15.22;86.86;98484.78;5276607;27;20252;-56
2022/06/12 03:46:41;;;;;;;8.07;7.28;;;14.40;99.90;;;15.28;87.30;98485.06;5283341;27;20200;-54
2022/06/12 03:49:26;;;;;;;7.18;6.70;;;14.50;99.90;;;15.29;87.74;98484.25;5283188;27;20271;-56
2022/06/12 03:52:12;;;;;;;7.72;7.03;;;14.50;99.90;;;15.30;88.64;98483.44;5279831;27;20230;-57
2022/06/12 03:55:02;;;;;;;7.68;7.18;;;14.60;99.90;;;15.34;86.68;98484.50;5278846;28;20693;-57
2022/06/12 03:57:51;;;;;;;7.15;6.65;;;14.60;99.90;;;15.24;85.81;98485.72;5282228;27;20227;-56
2022/06/12 04:00:31;;;;;;;7.57;7.03;;;14.40;99.90;;;15.27;86.44;98488.44;5278166;27;20318;-55
2022/06/12 04:03:08;;;;;;;7.60;7.10;;;14.40;99.90;;;15.20;86.35;98485.50;5277053;28;20288;-56
2022/06/12 04:05:46;;;;;;;7.57;7.07;;;14.40;99.90;;;15.15;87.40;98487.84;5274219;27;20200;-56
2022/06/12 04:08:24;;;;;;;8.07;7.38;;;14.40;99.90;;;15.12;88.27;98484.25;5285429;28;20234;-58
2022/06/12 04:10:59;;;;;;;7.40;6.90;;;14.40;99.90;;;15.11;88.00;98480.78;5278601;28;20195;-58
2022/06/12 04:13:32;;;;;;;7.70;7.10;;;14.40;99.90;;;15.21;88.38;98487.25;5282515;28;20214;-57
2022/06/12 04:16:13;;;;;;;8.90;8.20;;;14.50;99.90;;;15.29;87.54;98491.97;5284852;27;20195;-58
2022/06/12 04:18:46;;;;;;;9.07;8.18;;;14.60;99.90;;;15.27;87.07;98491.00;5284631;28;20191;-58
2022/06/12 04:21:30;;;;;;;7.65;7.05;;;14.60;99.90;;;15.31;88.01;98494.66;5280239;28;20678;-58
2022/06/12 04:24:12;;;;;;;7.43;6.93;;;14.70;99.90;;;15.39;86.27;98489.84;5273873;28;20194;-57
2022/06/12 04:26:52;;;;;;;7.57;7.03;;;14.60;99.90;;;15.45;85.92;98492.72;5274742;28;20304;-58
2022/06/12 04:29:30;;;;;;;7.55;7.03;;;14.60;99.90;;;15.51;85.68;98493.03;5271814;28;20242;-58
2022/06/12 04:32:08;;;;;;;8.23;7.63;;;14.70;99.90;;;15.56;84.99;98491.53;5283421;28;20257;-57
2022/06/12 04:34:43;;;;;;;7.63;6.90;;;14.70;99.90;;;15.52;85.13;98494.78;5281205;27;20238;-58
2022/06/12 04:37:20;;;;;;;8.00;7.30;;;14.70;99.90;;;15.55;85.53;98494.94;5277037;28;20511;-58
2022/06/12 04:39:55;;;;;;;7.85;7.35;;;14.80;99.90;;;15.62;85.12;98485.78;5273941;28;20596;-58
2022/06/12 04:42:32;;;;;;;7.85;7.25;;;14.80;99.90;;;15.84;85.19;98496.34;5274648;28;20222;-57
2022/06/12 04:45:06;;;;;;;7.80;7.20;;;15.10;99.90;;;16.37;83.11;98499.59;5275541;28;20232;-56
2022/06/12 04:47:41;;;;;;;6.85;6.25;;;15.60;99.90;;;17.05;78.79;98496.56;5271109;27;20313;-58
2022/06/12 04:50:16;;;;;;;7.78;7.15;;;16.20;99.90;;;17.69;76.28;98497.41;5279526;27;20223;-58
2022/06/12 04:52:49;;;;;;;6.80;6.20;;;16.80;99.90;;;18.32;72.50;98492.06;5280721;28;20186;-57
2022/06/12 04:55:22;;;;;;;6.32;5.80;;;17.40;99.90;;;18.91;70.12;98490.72;5281746;28;20195;-58
2022/06/12 04:57:57;;;;;;;6.43;5.93;;;17.70;99.90;;;19.44;68.16;98493.38;5278012;28;20577;-58
2022/06/12 05:00:30;;;;;;;5.97;5.47;;;18.20;99.90;;;19.79;65.52;98491.91;5278374;27;20218;-58
2022/06/12 05:03:04;;;;;;;5.70;5.20;;;18.50;99.90;;;20.05;65.18;98495.28;5272466;28;20257;-58
2022/06/12 05:05:37;;;;;;;5.97;5.55;;;18.70;99.90;;;20.47;64.20;98497.38;5282587;28;20568;-58
2022/06/12 05:08:11;;;;;;;5.93;5.47;;;19.00;99.90;;;21.00;61.65;98497.09;5275655;27;20196;-58
2022/06/12 05:10:46;;;;;;;6.18;5.78;;;19.50;99.90;;;21.39;61.10;98492.06;5281297;27;20246;-58
2022/06/12 05:13:21;;;;;;;5.40;5.10;;;19.80;99.90;;;21.29;60.08;98497.81;5274686;28;20219;-59
2022/06/12 05:15:55;;;;;;;5.60;5.10;;;19.70;99.90;;;21.38;60.09;98495.50;5273834;28;20704;-59
2022/06/12 05:18:29;;;;;;;5.78;5.28;;;19.80;99.90;;;21.74;59.35;98494.59;5271707;28;20191;-59
2022/06/12 05:21:02;;;;;;;6.05;5.60;;;20.00;99.90;;;22.04;57.80;98489.22;5282368;28;20660;-58
2022/06/12 05:23:36;;;;;;;5.13;4.72;;;20.20;99.90;;;22.28;57.01;98491.47;5270828;27;20296;-59
2022/06/12 05:26:10;;;;;;;6.28;5.57;;;20.50;99.90;;;22.01;57.74;98486.56;5279856;28;20230;-59
2022/06/12 05:28:46;;;;;;;6.78;5.40;;;20.50;99.90;;;22.44;57.24;98490.09;5274796;28;20202;-59
2022/06/12 05:31:20;;;;;;;6.18;5.57;;;20.60;99.90;;;22.19;57.23;98488.69;5276317;28;20706;-59
2022/06/12 05:33:53;;;;;;;5.45;5.00;;;20.60;99.90;;;22.76;55.67;98488.09;5273484;28;20195;-59
2022/06/12 05:36:27;;;;;;;5.28;4.82;;;20.90;99.90;;;23.02;55.45;98490.34;5281225;28;20282;-59
2022/06/12 05:39:00;;;;;;;5.47;5.07;;;21.00;99.90;;;22.85;55.92;98485.66;5278401;28;20326;-59
2022/06/12 05:41:33;;;;;;;5.30;4.85;;;21.10;99.90;;;23.03;55.69;98482.53;5280891;28;20238;-58
2022/06/12 05:44:08;;;;;;;5.35;4.88;;;21.20;99.90;;;23.12;55.58;98484.41;5282158;28;20307;-58
2022/06/12 05:46:41;;;;;;;5.22;4.68;;;21.30;99.90;;;23.56;54.52;98477.31;5279951;28;20220;-58
2022/06/12 05:49:16;;;;;;;5.35;4.90;;;21.60;99.90;;;23.78;53.15;98483.78;5275871;28;20220;-58
2022/06/12 05:51:49;;;;;;;5.30;4.90;;;21.90;99.90;;;23.83;53.89;98484.72;5278544;28;20191;-57
2022/06/12 05:54:22;;;;;;;5.22;4.47;;;22.00;99.90;;;24.19;53.01;98487.81;5279190;28;20222;-57
2022/06/12 05:56:55;;;;;;;5.32;4.82;;;22.10;99.60;;;24.41;52.21;98478.50;5281424;28;20203;-57
2022/06/12 05:59:30;;;;;;;5.30;4.90;;;22.30;99.20;;;24.59;51.42;98480.50;5278891;28;20261;-57
2022/06/12 06:02:03;;;;;;;5.20;4.80;;;22.40;99.10;;;24.53;51.97;98483.06;5278794;28;20248;-58
2022/06/12 06:04:36;;;;;;;5.30;4.90;;;22.40;99.10;;;24.76;51.39;98480.69;5276820;28;20280;-57
2022/06/12 06:07:10;;;;;;;5.30;4.80;;;22.50;98.70;;;24.73;50.94;98474.56;5274035;28;20196;-58
2022/06/12 06:09:43;;;;;;;4.95;4.55;;;22.70;98.70;;;24.91;51.02;98475.59;5278438;28;20245;-58
2022/06/12 06:12:16;;;;;;;4.82;4.53;;;22.80;98.30;;;25.34;50.08;98476.03;5281900;28;20235;-58
2022/06/12 06:14:51;;;;;;;4.53;4.22;;;22.90;98.20;;;25.46;49.08;98477.84;5276471;28;20203;-59
2022/06/12 06:17:24;;;;;;;5.28;4.78;;;23.10;97.80;;;25.78;48.42;98472.84;5277368;28;20198;-58
2022/06/12 06:19:57;;;;;;;5.47;4.97;;;23.20;97.60;;;25.98;48.49;98471.28;5279360;28;20245;-57
2022/06/12 06:22:31;;;;;;;4.90;4.38;;;23.30;97.50;;;26.14;47.76;98463.47;5282137;28;20259;-58
2022/06/12 06:25:06;;;;;;;4.80;4.40;;;23.60;97.20;;;26.44;47.88;98465.31;5279297;27;20213;-58
2022/06/12 06:27:39;;;;;;;4.63;4.22;;;24.00;96.90;;;26.83;46.72;98467.22;5278650;27;20232;-58
2022/06/12 06:30:15;;;;;;;4.60;4.30;;;24.20;96.40;;;27.18;45.84;98476.91;5280576;28;20214;-58
2022/06/12 06:32:48;;;;;;;5.00;4.60;;;24.40;96.20;;;27.23;46.05;98475.19;5280745;28;20244;-58
2022/06/12 06:35:22;;;;;;;4.65;4.25;;;24.60;96.00;;;27.60;45.19;98475.16;5281538;27;20195;-58
2022/06/12 06:37:56;;;;;;;4.90;4.40;;;24.90;95.50;;;27.73;45.19;98463.78;5283953;28;20203;-58
2022/06/12 06:40:32;;;;;;;4.63;4.10;;;25.10;95.10;;;28.02;44.28;98473.38;5284230;28;20223;-58
2022/06/12 06:43:11;;;;;;;4.38;3.97;;;25.40;94.50;;;28.34;43.27;98475.03;5279375;28;20226;-58
2022/06/12 06:48:36;;;;;;;4.50;4.13;;;25.80;94.00;;;28.33;43.79;98479.41;5285643;28;20727;-59
2022/06/12 06:51:10;;;;;;;4.68;4.35;;;25.90;94.30;;;28.95;42.84;98475.56;5281994;28;20198;-59
2022/06/12 06:53:43;;;;;;;4.13;3.83;;;26.40;93.30;;;29.29;41.29;98480.63;5281237;28;20209;-59
2022/06/12 06:56:16;;;;;;;4.60;4.30;;;26.70;92.60;;;29.55;41.36;98472.50;5280453;27;20287;-58
2022/06/12 06:58:49;;;;;;;4.32;3.95;;;27.00;92.00;;;29.82;39.89;98465.28;5286430;28;20223;-59
2022/06/12 07:01:24;;;;;;;4.25;3.95;;;27.20;91.50;;;30.06;39.36;98472.91;5279317;28;20237;-58
2022/06/12 07:03:57;;;;;;;4.03;3.63;;;27.50;90.90;;;30.12;38.61;98466.69;5280501;28;20225;-58
2022/06/12 07:06:31;;;;;;;4.20;3.85;;;27.60;90.20;;;30.33;38.81;98472.63;5282524;28;20195;-58
2022/06/12 07:09:05;;;;;;;5.20;4.05;;;27.70;90.30;;;30.52;38.58;98469.72;5282204;28;20735;-61
2022/06/12 07:11:38;;;;;;;4.50;3.88;;;28.00;90.20;;;30.70;37.63;98468.59;5281224;27;20301;-61
2022/06/12 07:14:11;;;;;;;4.38;3.97;;;28.00;88.70;;;30.76;37.88;98472.91;5282753;27;20187;-59
2022/06/12 07:16:46;;;;;;;4.00;3.70;;;28.00;89.30;;;30.88;37.33;98470.16;5278031;27;20207;-59
2022/06/12 07:19:19;;;;;;;3.80;3.53;;;28.00;88.60;;;31.02;37.68;98463.75;5284699;28;20670;-60
2022/06/12 07:21:52;;;;;;;3.70;3.50;;;28.20;88.50;;;31.30;36.28;98467.72;5282306;27;20199;-62
2022/06/12 07:24:33;;;;;;;3.95;3.65;;;28.40;87.00;;;31.61;36.24;98473.38;5275785;27;20301;-60
2022/06/12 07:27:06;;;;;;;3.50;3.30;;;28.50;86.40;;;31.65;36.44;98466.28;5268998;28;20632;-61
2022/06/12 07:29:40;;;;;;;3.58;3.28;;;28.60;87.20;;;31.66;35.77;98470.66;5285876;28;20223;-58
2022/06/12 07:32:14;;;;;;;3.97;3.67;;;28.60;86.10;;;31.76;35.71;98469.59;5287782;28;20190;-59
2022/06/12 07:34:48;;;;;;;3.83;3.60;;;28.70;85.80;;;31.73;36.32;98469.63;5286228;28;20642;-59
2022/06/12 07:37:22;;;;;;;3.90;3.60;;;28.90;86.50;;;31.75;36.21;98461.69;5278670;28;20195;-59
2022/06/12 07:39:55;;;;;;;3.80;3.47;;;29.00;85.60;;;31.79;35.49;98456.34;5278354;28;20218;-60
2022/06/12 07:42:35;;;;;;;3.75;3.47;;;28.80;84.80;;;31.54;36.71;98455.03;5282314;28;20195;-60
2022/06/12 07:45:10;;;;;;;4.03;3.63;;;28.80;86.10;;;31.95;36.13;98467.50;5285339;28;20688;-61
2022/06/12 07:47:45;;;;;;;4.28;3.35;;;29.00;85.50;;;32.23;35.82;98459.91;5277909;28;20234;-60
2022/06/12 07:50:18;;;;;;;3.67;3.38;;;29.50;85.00;;;32.51;35.28;98454.94;5273481;28;20715;-60
2022/06/12 07:52:52;;;;;;;3.60;3.30;;;29.70;84.40;;;32.81;34.26;98456.94;5283969;28;20663;-60
2022/06/12 07:55:25;;;;;;;3.63;3.33;;;29.80;83.50;;;33.03;33.87;98455.56;5279980;28;20195;-61
2022/06/12 07:57:59;;;;;;;3.45;3.15;;;29.80;82.40;;;33.15;33.61;98452.59;5286092;28;20203;-61
2022/06/12 08:00:32;;;;;;;4.20;3.38;;;29.90;82.00;;;33.33;33.14;98450.41;5285609;27;20342;-61
2022/06/12 08:03:08;;;;;;;4.28;3.38;;;30.20;81.40;;;33.46;32.32;98446.53;5278339;28;20194;-61
2022/06/12 08:05:41;;;;;;;4.05;3.72;;;30.00;81.50;;;32.96;33.83;98449.47;5280858;28;20267;-60
2022/06/12 08:08:14;;;;;;;4.05;3.63;;;29.90;82.20;;;32.76;34.53;98441.13;5278428;28;20233;-61
2022/06/12 08:10:48;;;;;;;4.22;3.78;;;29.60;82.90;;;32.07;36.00;98440.81;5276387;28;20640;-61
2022/06/12 08:13:23;;;;;;;3.80;3.50;;;29.30;83.80;;;32.00;36.76;98443.63;5284069;28;20668;-59
2022/06/12 08:15:58;;;;;;;3.47;3.15;;;29.40;85.70;;;32.64;35.02;98444.06;5283085;28;20198;-61
2022/06/12 08:18:32;;;;;;;3.97;3.67;;;29.60;83.00;;;32.86;34.13;98439.16;5274562;27;20249;-60
2022/06/12 08:21:11;;;;;;;3.63;3.33;;;29.80;82.70;;;33.21;33.25;98438.31;5278914;28;20604;-60
2022/06/12 08:23:50;;;;;;;4.30;3.50;;;30.20;80.90;;;32.23;35.13;98432.56;5273154;27;20375;-63
2022/06/12 08:26:28;;;;;;;3.47;3.17;;;30.10;82.50;;;32.54;34.72;98438.13;5273915;28;20721;-61
2022/06/12 08:29:06;;;;;;;3.72;3.42;;;30.10;81.10;;;32.42;33.73;98433.03;5285619;28;20302;-60
2022/06/12 08:31:43;;;;;;;2.90;2.70;;;30.00;78.80;;;32.63;31.88;98437.91;5271872;28;20248;-60
2022/06/12 08:34:22;;;;;;;3.42;3.00;;;30.30;76.30;;;32.61;34.14;98442.34;5278819;28;20195;-60
2022/06/12 08:36:59;;;;;;;4.05;3.17;;;30.10;79.90;;;32.74;33.29;98442.97;5277443;28;20217;-61
2022/06/12 08:39:33;;;;;;;3.58;3.30;;;30.50;78.50;;;32.89;32.66;98436.44;5280667;27;20214;-59
2022/06/12 08:42:19;;;;;;;3.83;3.53;;;30.60;77.20;;;32.66;32.37;98437.84;5281248;28;20730;-62
2022/06/12 08:44:57;;;;;;;3.40;3.20;;;30.50;76.50;;;32.53;33.11;98436.34;5275136;28;20384;-59
2022/06/12 08:47:37;;;;;;;3.45;3.15;;;30.40;77.40;;;32.61;33.77;98434.41;5277782;28;20202;-60
2022/06/12 08:50:20;;;;;;;4.63;3.45;;;30.50;77.70;;;32.51;33.25;98431.09;5281828;28;20264;-60
2022/06/12 08:53:01;;;;;;;3.00;2.80;;;30.60;77.00;;;32.46;31.78;98426.81;5281021;28;20218;-61
2022/06/12 08:55:41;;;;;;;3.53;3.20;;;30.80;72.80;;;32.53;31.91;98415.19;5276730;27;20942;-60
2022/06/12 08:58:20;;;;;;;3.58;3.28;;;31.00;73.60;;;32.59;32.35;98415.03;5282287;28;20712;-59
2022/06/12 09:00:54;;;;;;;3.20;3.00;;;30.90;75.10;;;32.48;33.59;98417.03;5278535;27;20591;-60
2022/06/12 09:03:33;;;;;;;4.10;3.30;;;30.80;76.20;;;32.43;32.41;98417.13;5280426;27;20706;-61
2022/06/12 09:06:17;;;;;;;3.13;2.92;;;30.60;74.60;;;32.37;33.41;98419.06;5279564;28;20281;-59
2022/06/12 09:08:59;;;;;;;3.45;3.22;;;30.60;76.00;;;32.13;33.19;98412.50;5280811;28;20254;-60
2022/06/12 09:11:37;;;;;;;3.50;3.20;;;30.40;75.90;;;32.19;33.58;98410.56;5279726;27;20226;-59
2022/06/12 09:14:24;;;;;;;3.40;3.20;;;30.60;75.70;;;32.01;33.52;98410.97;5275128;28;20199;-59
2022/06/12 09:17:09;;;;;;;3.53;3.03;;;30.40;75.10;;;31.76;33.54;98402.63;5280206;27;20252;-60
2022/06/12 09:19:55;;;;;;;2.88;2.60;;;30.10;74.70;;;31.97;33.22;98399.59;5277670;27;20217;-59
2022/06/12 09:22:40;;;;;;;3.03;2.80;;;30.50;75.50;;;32.14;32.79;98395.72;5282978;28;20205;-61
2022/06/12 09:25:20;;;;;;;3.15;2.95;;;30.70;74.10;;;32.37;32.66;98403.19;5282892;28;20640;-61
2022/06/12 09:28:04;;;;;;;3.35;3.15;;;30.80;74.00;;;32.17;33.31;98399.19;5281501;28;20230;-60
2022/06/12 09:30:44;;;;;;;3.35;3.05;;;30.80;74.70;;;32.29;32.86;98393.59;5279849;28;20271;-61
2022/06/12 09:33:28;;;;;;;3.20;2.90;;;30.80;74.60;;;32.23;31.98;98412.28;5281285;28;20639;-61
2022/06/12 09:36:15;;;;;;;2.88;2.58;;;30.70;71.40;;;32.21;32.63;98392.91;5279602;28;20579;-61
2022/06/12 09:39:04;;;;;;;2.92;2.72;;;30.70;72.30;;;32.09;31.44;98387.88;5278555;28;20222;-60
2022/06/12 09:41:46;;;;;;;4.13;2.95;;;30.90;71.20;;;32.20;32.84;98385.00;5284049;27;20195;-61
2022/06/12 09:44:27;;;;;;;3.33;3.03;;;31.00;73.00;;;32.31;33.23;98385.66;5283611;28;20687;-61
2022/06/12 09:47:08;;;;;;;3.33;3.03;;;31.20;72.30;;;32.21;32.63;98376.16;5284010;28;20242;-61
2022/06/12 09:50:08;;;;;;;3.30;3.10;;;30.80;72.50;;;32.18;33.23;98379.75;5283103;28;20228;-59
2022/06/12 09:53:03;;;;;;;3.35;3.08;;;30.80;74.00;;;32.16;32.83;98373.59;5279899;28;20194;-61
2022/06/12 09:55:43;;;;;;;3.22;2.92;;;30.80;73.10;;;32.07;32.86;98369.38;5281228;28;20194;-61
2022/06/12 09:58:22;;;;;;;3.40;2.97;;;30.70;73.70;;;31.98;32.76;98374.88;5280031;28;20641;-61
2022/06/12 10:01:04;;;;;;;3.35;3.15;;;30.70;72.80;;;31.95;34.11;98368.78;5280924;28;20222;-61
2022/06/12 10:03:44;;;;;;;2.70;2.50;;;30.70;74.70;;;31.90;31.94;98360.91;5282101;28;20285;-61
2022/06/12 10:06:29;;;;;;;3.58;2.60;;;30.70;70.40;;;31.52;32.66;98364.31;5274548;28;20310;-61
2022/06/12 10:09:10;;;;;;;2.70;2.50;;;30.60;71.90;;;31.42;32.53;98358.34;5280804;28;20218;-61
2022/06/12 10:11:50;;;;;;;2.95;2.60;;;30.40;70.70;;;31.25;32.02;98355.97;5278569;28;20570;-59
2022/06/12 10:14:29;;;;;;;3.20;2.70;;;30.20;69.40;;;31.38;31.94;98352.22;5282001;28;20707;-61
2022/06/12 10:17:08;;;;;;;3.20;2.90;;;30.30;70.50;;;31.52;33.54;98353.75;5280680;28;20195;-59
2022/06/12 10:19:48;;;;;;;3.45;3.20;;;30.50;73.00;;;31.55;32.07;98354.53;5281713;28;20842;-60
2022/06/12 10:22:26;;;;;;;3.25;3.05;;;30.40;70.20;;;31.49;32.78;98351.16;5280071;28;20207;-58
2022/06/12 10:25:02;;;;;;;3.75;3.38;;;30.30;71.60;;;31.44;32.86;98345.09;5281211;28;20351;-60
2022/06/12 10:27:51;;;;;;;3.47;3.17;;;30.30;71.90;;;31.29;31.68;98340.94;5284778;28;20267;-61
2022/06/12 10:30:35;;;;;;;2.90;2.55;;;30.00;69.20;;;31.30;32.75;98338.25;5282072;28;20250;-61
2022/06/12 10:33:19;;;;;;;4.15;2.85;;;30.20;71.60;;;31.10;31.76;98341.25;5282120;28;20279;-61
2022/06/12 10:35:56;;;;;;;3.45;3.15;;;30.30;70.20;;;30.75;32.23;98329.47;5282481;28;20247;-59
2022/06/12 10:38:32;;;;;;;3.78;2.88;;;29.80;69.00;;;30.48;31.74;98328.16;5281837;28;20263;-59
2022/06/12 10:41:28;;;;;;;3.97;2.72;;;29.60;68.10;;;30.82;31.58;98327.66;5278351;28;20276;-59
2022/06/12 10:44:03;;;;;;;2.80;2.60;;;29.80;68.20;;;30.75;32.90;98328.63;5278097;28;20293;-61
2022/06/12 10:46:38;;;;;;;3.05;2.75;;;29.90;71.70;;;30.77;33.26;98326.84;5282044;28;20686;-61
2022/06/12 10:49:18;;;;;;;2.92;2.72;;;29.90;70.70;;;30.80;32.78;98321.53;5283039;28;20249;-60
2022/06/12 10:52:04;;;;;;;3.45;2.90;;;29.90;69.40;;;31.02;32.46;98321.16;5279623;28;20599;-60
2022/06/12 10:54:42;;;;;;;3.75;3.28;;;30.10;69.80;;;31.05;32.12;98313.16;5276109;28;20203;-60
2022/06/12 10:57:39;;;;;;;3.47;3.17;;;30.00;69.30;;;30.78;31.50;98315.38;5284204;28;20598;-60
2022/06/12 11:00:18;;;;;;;2.78;2.58;;;29.90;67.10;;;30.76;32.39;98311.88;5284901;28;20581;-60
2022/06/12 11:03:07;;;;;;;3.05;2.83;;;29.90;69.30;;;30.67;32.10;98306.75;5278622;28;20191;-60
2022/06/12 11:05:56;;;;;;;3.95;2.97;;;29.80;69.20;;;30.53;33.13;98307.88;5277390;28;20223;-60
2022/06/12 11:08:55;;;;;;;4.22;2.90;;;29.70;70.50;;;30.48;33.76;98304.41;5284987;28;20234;-60
2022/06/12 11:11:42;;;;;;;2.97;2.78;;;29.60;71.40;;;30.48;33.80;98299.16;5285858;27;20226;-60
2022/06/12 11:14:42;;;;;;;4.05;3.00;;;29.50;71.50;;;30.51;34.48;98295.59;5282669;28;20678;-60
2022/06/12 11:17:37;;;;;;;3.53;3.20;;;29.50;74.40;;;30.55;34.72;98304.31;5279646;28;20223;-60